Time;durP1;ratioP1;P1;durP2;ratioP2;P2;SDS_P1;SDS_P2;PMS_P1;PMS_P2;Temp;Humidity;BMP_temperature;BMP_pressure;BME280_temperature;BME280_humidity;BME280_pressure;Samples;Min_cycle;Max_cycle;Signal;HPM_P1;HPM_P2
2023/03/16 00:01:17;;;;;;;0.00;0.00;;;;;;;8.03;100.00;99679.63;5047819;28;20028;-76
2023/03/16 00:03:52;;;;;;;0.00;0.00;;;;;;;8.02;100.00;99670.66;5030303;28;20051;-77
2023/03/16 00:06:23;;;;;;;0.00;0.00;;;;;;;8.23;100.00;99691.69;5051779;28;20033;-76
2023/03/16 00:09:29;;;;;;;0.00;0.00;;;;;;;8.39;100.00;99706.97;5030731;28;21206;-76
2023/03/16 00:12:43;;;;;;;;;;;;;;;;;;;;;
2023/03/16 00:15:20;;;;;;;0.00;0.00;;;;;;;8.27;100.00;99681.91;5042125;28;20407;-76
2023/03/16 00:18:25;;;;;;;;;;;;;;;;;;;;;
2023/03/16 00:25:17;;;;;;;;;;;;;;;;;;;;;
2023/03/16 00:31:29;;;;;;;;;;;;;;;;;;;;;
2023/03/16 00:34:34;;;;;;;;;;;;;;;;;;;;;
2023/03/16 00:37:59;;;;;;;;;;;;;;;;;;;;;
2023/03/16 00:40:40;;;;;;;;;;;;;;;;;;;;;
2023/03/16 00:43:08;;;;;;;0.00;0.00;;;;;;;8.05;100.00;99628.47;4908787;29;20051;-76
2023/03/16 00:45:44;;;;;;;;;;;;;;;;;;;;;
2023/03/16 00:51:45;;;;;;;0.00;0.00;;;;;;;8.26;100.00;99647.56;4931889;28;20034;-77
2023/03/16 00:54:42;;;;;;;0.00;0.00;;;;;;;8.05;100.00;99609.41;4955465;28;20045;-76
2023/03/16 00:57:40;;;;;;;;;;;;;;;;;;;;;
2023/03/16 01:02:45;;;;;;;0.00;0.00;;;;;;;8.06;100.00;99605.63;5042426;28;20036;-76
2023/03/16 01:05:29;;;;;;;0.00;0.00;;;;;;;8.04;100.00;99595.00;5026862;28;20080;-76
2023/03/16 01:08:04;;;;;;;;;;;;;;;;;;;;;
2023/03/16 01:10:39;;;;;;;0.00;0.00;;;;;;;8.15;100.00;99609.44;5034759;28;20032;-76
2023/03/16 01:13:08;;;;;;;0.00;0.00;;;;;;;8.10;100.00;99606.69;5025740;28;20104;-77
2023/03/16 01:15:39;;;;;;;0.00;0.00;;;;;;;7.98;100.00;99577.00;5026439;28;20043;-75
2023/03/16 01:18:05;;;;;;;0.00;0.00;;;;;;;8.32;100.00;99621.97;5041723;28;20029;-77
2023/03/16 01:21:16;;;;;;;0.00;0.00;;;;;;;8.04;100.00;99580.53;5006325;28;20114;-74
2023/03/16 01:23:59;;;;;;;0.00;0.00;;;;;;;8.30;100.00;99624.97;5031601;28;20021;-76
2023/03/16 01:27:07;;;;;;;;;;;;;;;;;;;;;
2023/03/16 01:29:44;;;;;;;0.00;0.00;;;;;;;8.10;100.00;99601.25;5048411;28;20027;-76
2023/03/16 01:32:39;;;;;;;;;;;;;;;;;;;;;
2023/03/16 01:39:00;;;;;;;;;;;;;;;;;;;;;
2023/03/16 01:42:09;;;;;;;0.00;0.00;;;;;;;8.04;100.00;99553.31;5029591;28;20462;-78
2023/03/16 01:45:06;;;;;;;;;;;;;;;;;;;;;
2023/03/16 01:48:07;;;;;;;0.00;0.00;;;;;;;8.35;100.00;99588.75;5042217;28;20049;-77
2023/03/16 01:54:41;;;;;;;0.00;0.00;;;;;;;8.36;100.00;99596.63;5027985;28;20037;-77
2023/03/16 01:57:43;;;;;;;0.00;0.00;;;;;;;7.96;100.00;99543.78;5027305;28;20601;-76
2023/03/16 02:00:32;;;;;;;0.00;0.00;;;;;;;8.35;100.00;99591.47;5035933;28;20060;-77
2023/03/16 02:03:20;;;;;;;0.00;0.00;;;;;;;8.15;100.00;99565.84;5018070;28;20036;-75
2023/03/16 02:05:59;;;;;;;0.00;0.00;;;;;;;8.14;100.00;99566.94;5043534;28;20076;-77
2023/03/16 02:09:23;;;;;;;0.00;0.00;;;;;;;8.34;100.00;99581.69;5020172;28;20052;-76
2023/03/16 02:12:45;;;;;;;;;;;;;;;;;;;;;
2023/03/16 02:19:29;;;;;;;0.00;0.00;;;;;;;8.39;100.00;99568.03;4974269;28;20040;-76
2023/03/16 02:51:43;;;;;;;;;;;;;;;;;;;;;
2023/03/16 03:14:17;;;;;;;0.00;0.00;;;;;;;8.21;100.00;99504.84;4806901;29;20070;-77
2023/03/16 03:17:46;;;;;;;0.00;0.00;;;;;;;8.41;100.00;99546.81;4817233;29;20053;-76
2023/03/16 03:20:32;;;;;;;0.00;0.00;;;;;;;8.11;100.00;99493.97;4756206;30;20053;-76
2023/03/16 03:27:23;;;;;;;;;;;;;;;;;;;;;
2023/03/16 03:33:52;;;;;;;0.00;0.00;;;;;;;8.16;100.00;99474.91;4858134;29;20049;-76
2023/03/16 03:40:45;;;;;;;;;;;;;;;8.33;100.00;99506.47;4852450;29;20063;-78
2023/03/16 03:47:15;;;;;;;0.00;0.00;;;;;;;8.25;100.00;99494.25;4822952;29;20069;-75
2023/03/16 03:50:20;;;;;;;;;;;;;;;;;;;;;
2023/03/16 03:53:16;;;;;;;0.00;0.00;;;;;;;8.19;100.00;99484.41;4959257;28;20035;-78
2023/03/16 03:59:43;;;;;;;;;;;;;;;;;;;;;
2023/03/16 04:20:11;;;;;;;;;;;;;;;;;;;;;
2023/03/16 04:23:16;;;;;;;;;;;;;;;;;;;;;
2023/03/16 04:29:38;;;;;;;;;;;;;;;;;;;;;
2023/03/16 04:39:28;;;;;;;0.00;0.00;;;;;;;8.42;100.00;99483.03;4858120;29;20054;-78
2023/03/16 04:42:27;;;;;;;0.00;0.00;;;;;;;8.25;100.00;99447.09;4842208;29;20095;-77
2023/03/16 07:04:05;;;;;;;;;;;;;;;;;;;;;
2023/03/16 07:06:33;;;;;;;0.00;0.00;;;;;;;7.99;100.00;99343.69;4921855;29;20064;-80
2023/03/16 07:09:32;;;;;;;0.00;0.00;;;;;;;8.00;100.00;99346.13;4915354;29;20032;-79
2023/03/16 07:16:20;;;;;;;;;;;;;;;;;;;;;
2023/03/16 07:22:37;;;;;;;;;;;;;;;;;;;;;
2023/03/16 07:25:26;;;;;;;;;;;;;;;;;;;;;
2023/03/16 07:28:11;;;;;;;0.00;0.00;;;;;;;8.20;100.00;99350.69;4871546;29;20045;-80
2023/03/16 07:38:38;;;;;;;;;;;;;;;;;;;;;
2023/03/16 07:41:45;;;;;;;0.00;0.00;;;;;;;8.60;100.00;99401.81;4946101;28;20092;-79
2023/03/16 07:45:13;;;;;;;0.00;0.00;;;;;;;8.44;100.00;99355.56;4950674;28;20035;-80
2023/03/16 07:48:38;;;;;;;;;;;;;;;;;;;;;
2023/03/16 07:58:28;;;;;;;0.00;0.00;;;;;;;9.43;100.00;99398.41;4937061;28;20234;-80
2023/03/16 08:01:09;;;;;;;0.00;0.00;;;;;;;9.57;100.00;99409.50;4936393;29;20035;-75
2023/03/16 08:04:35;;;;;;;0.00;0.00;;;;;;;9.61;100.00;99424.19;4929935;29;20035;-79
2023/03/16 09:01:09;;;;;;;;;;;;;;;;;;;;;
2023/03/16 09:04:11;;;;;;;;;;;;;;;;;;;;;
2023/03/16 09:06:54;;;;;;;0.00;0.00;;;;;;;9.72;100.00;99394.91;4830370;29;20524;-78
2023/03/16 09:09:20;;;;;;;0.00;0.00;;;;;;;9.80;100.00;99409.88;4891908;29;20047;-79
2023/03/16 09:12:06;;;;;;;0.00;0.00;;;;;;;9.98;100.00;99415.75;4915731;29;20122;-77
2023/03/16 09:15:11;;;;;;;0.00;0.00;;;;;;;10.10;100.00;99422.47;4918033;29;20032;-78
2023/03/16 09:21:55;;;;;;;0.00;0.00;;;;;;;10.28;100.00;99393.59;4992968;28;20072;-79
2023/03/16 09:25:04;;;;;;;;;;;;;;;;;;;;;
2023/03/16 09:31:46;;;;;;;;;;;;;;;;;;;;;
2023/03/16 09:41:52;;;;;;;;;;;;;;;;;;;;;
2023/03/16 09:45:14;;;;;;;0.00;0.00;;;;;;;12.19;95.21;99385.47;4918041;29;20028;-80
2023/03/16 09:51:48;;;;;;;0.00;0.00;;;;;;;13.83;86.43;99369.31;4874256;29;20079;-79
2023/03/16 09:54:48;;;;;;;0.00;0.00;;;;;;;14.01;86.26;99360.06;4861478;29;20140;-79
2023/03/16 10:01:34;;;;;;;;;;;;;;;;;;;;;
2023/03/16 10:15:26;;;;;;;;;;;;;;;;;;;;;
2023/03/16 10:18:55;;;;;;;0.00;0.00;;;;;;;17.73;56.15;99388.06;4844923;29;20032;-77
2023/03/16 10:25:45;;;;;;;0.00;0.00;;;;;;;14.17;67.31;99378.94;4829979;29;20090;-80
2023/03/16 10:28:25;;;;;;;0.00;0.00;;;;;;;13.48;70.76;99344.38;4766001;29;20085;-78
2023/03/16 10:31:33;;;;;;;0.00;0.00;;;;;;;13.31;71.61;99398.00;4832821;29;20082;-77
2023/03/16 10:34:24;;;;;;;;;;;;;;;;;;;;;
2023/03/16 10:47:12;;;;;;;0.00;0.00;;;;;;;12.18;76.55;99327.09;4824798;29;20049;-77
2023/03/16 10:49:50;;;;;;;0.00;0.00;;;;;;;12.46;75.34;99335.31;4962757;28;20045;-78
2023/03/16 10:52:41;;;;;;;0.00;0.00;;;;;;;12.64;74.73;99341.00;4981226;28;20044;-79
2023/03/16 10:55:40;;;;;;;0.00;0.00;;;;;;;12.79;73.63;99367.28;4997983;28;20469;-77
2023/03/16 10:58:08;;;;;;;0.00;0.00;;;;;;;12.50;74.17;99357.44;5012836;28;20029;-77
2023/03/16 11:00:42;;;;;;;0.00;0.00;;;;;;;12.64;74.35;99363.75;4978035;28;20029;-76
2023/03/16 11:03:53;;;;;;;0.00;0.00;;;;;;;12.70;74.50;99337.88;5011578;28;20054;-77
2023/03/16 11:06:24;;;;;;;0.00;0.00;;;;;;;12.70;74.20;99348.84;4963783;28;20032;-76
2023/03/16 11:09:25;;;;;;;0.00;0.00;;;;;;;13.15;75.31;99336.34;5007173;28;20038;-78
2023/03/16 11:12:05;;;;;;;0.00;0.00;;;;;;;14.26;71.19;99338.53;4991594;28;20053;-79
2023/03/16 11:14:53;;;;;;;0.00;0.00;;;;;;;14.66;68.23;99336.59;4997408;28;20388;-78
2023/03/16 11:18:20;;;;;;;;;;;;;;;;;;;;;
2023/03/16 11:21:45;;;;;;;0.00;0.00;;;;;;;13.76;69.23;99332.13;4952509;28;20043;-78
2023/03/16 11:24:49;;;;;;;0.00;0.00;;;;;;;15.56;67.49;99333.56;4929477;29;20039;-77
2023/03/16 11:27:37;;;;;;;;;;;;;;;;;;;;;
2023/03/16 11:30:57;;;;;;;0.00;0.00;;;;;;;16.52;59.12;99309.28;4942987;28;20034;-77
2023/03/16 11:33:26;;;;;;;0.08;0.08;;;;;;;16.07;58.87;99315.31;4996688;28;20042;-78
2023/03/16 11:36:32;;;;;;;0.00;0.00;;;;;;;15.84;59.80;99323.00;4976342;28;20396;-77
2023/03/16 11:39:40;;;;;;;0.00;0.00;;;;;;;15.35;61.99;99306.69;4987915;28;20041;-78
2023/03/16 11:42:22;;;;;;;;;;;;;;;;;;;;;
2023/03/16 11:45:47;;;;;;;;;;;;;;;;;;;;;
2023/03/16 11:48:36;;;;;;;0.00;0.00;;;;;;;15.63;59.91;99303.56;4995045;28;20038;-77
2023/03/16 11:51:22;;;;;;;0.00;0.00;;;;;;;15.68;61.09;99303.38;4991164;28;20041;-78
2023/03/16 11:54:15;;;;;;;0.00;0.00;;;;;;;16.07;61.54;99296.00;4981684;28;20905;-77
2023/03/16 11:57:26;;;;;;;0.00;0.00;;;;;;;16.03;59.85;99284.03;5001808;28;20030;-78
2023/03/16 12:00:41;;;;;;;0.00;0.00;;;;;;;16.27;60.53;99279.88;4986912;28;20036;-77
2023/03/16 12:03:53;;;;;;;;;;;;;;;;;;;;;
2023/03/16 12:07:04;;;;;;;0.00;0.00;;;;;;;19.81;52.60;99293.31;5019968;28;20116;-78
2023/03/16 12:17:38;;;;;;;;;;;;;;;;;;;;;
2023/03/16 12:20:25;;;;;;;0.00;0.00;;;;;;;26.55;33.90;99269.25;5013385;28;20041;-78
2023/03/16 12:23:57;;;;;;;;;;;;;;;;;;;;;
2023/03/16 12:26:48;;;;;;;0.00;0.00;;;;;;;24.06;37.53;99273.06;5011268;28;20284;-78
2023/03/16 12:29:58;;;;;;;;;;;;;;;;;;;;;
2023/03/16 12:33:09;;;;;;;0.00;0.00;;;;;;;20.72;42.45;99236.88;5009089;28;20030;-78
2023/03/16 12:35:57;;;;;;;0.00;0.00;;;;;;;19.92;44.67;99236.16;5030348;28;20022;-78
2023/03/16 12:38:48;;;;;;;0.00;0.00;;;;;;;18.97;47.90;99262.47;5013499;28;20148;-77
2023/03/16 12:55:59;;;;;;;;;;;;;;;;;;;;;
2023/03/16 12:59:17;;;;;;;;;;;;;;;;;;;;;
2023/03/16 13:02:05;;;;;;;0.00;0.00;;;;;;;16.07;58.86;99216.03;4883827;29;20046;-78
2023/03/16 13:05:46;;;;;;;;;;;;;;;;;;;;;
2023/03/16 13:09:24;;;;;;;;;;;;;;;;;;;;;
2023/03/16 13:15:57;;;;;;;0.00;0.00;;;;;;;13.73;67.28;99214.63;4823181;29;20042;-77
2023/03/16 13:32:51;;;;;;;0.00;0.00;;;;;;;12.42;74.01;99205.44;4795850;29;20501;-78
2023/03/16 13:35:26;;;;;;;0.00;0.00;;;;;;;12.51;75.09;99227.47;4810578;29;20133;-79
2023/03/16 13:38:06;;;;;;;0.00;0.00;;;;;;;12.32;75.32;99200.19;4843216;29;20052;-77
2023/03/16 13:40:50;;;;;;;0.00;0.00;;;;;;;12.23;75.99;99202.84;4880596;29;20040;-76
2023/03/16 13:43:31;;;;;;;0.00;0.00;;;;;;;12.17;76.28;99168.47;4919675;28;20042;-77
2023/03/16 13:45:57;;;;;;;0.00;0.00;;;;;;;12.49;75.93;99185.84;4994692;28;20116;-76
2023/03/16 13:48:28;;;;;;;0.00;0.00;;;;;;;12.52;75.58;99196.19;4993716;28;20575;-76
2023/03/16 13:51:42;;;;;;;0.00;0.00;;;;;;;12.66;74.90;99205.19;4995644;28;20021;-76
2023/03/16 13:54:48;;;;;;;;;;;;;;;;;;;;;
2023/03/16 13:57:18;;;;;;;0.00;0.00;;;;;;;12.60;75.35;99190.00;5011298;28;20028;-77
2023/03/16 13:59:44;;;;;;;0.00;0.00;;;;;;;12.54;75.17;99197.50;4997452;28;20124;-77
2023/03/16 14:02:29;;;;;;;0.00;0.00;;;;;;;12.65;75.06;99206.31;5008081;28;20057;-78
2023/03/16 14:04:59;;;;;;;0.00;0.00;;;;;;;12.78;74.85;99187.38;4996384;28;20104;-76
2023/03/16 14:08:04;;;;;;;0.00;0.00;;;;;;;12.91;73.67;99178.28;5008805;28;20035;-76
2023/03/16 14:10:26;;;;;;;0.00;0.00;;;;;;;13.36;72.99;99172.78;5025025;28;20073;-76
2023/03/16 14:13:09;;;;;;;0.00;0.00;;;;;;;13.73;71.67;99170.66;5018007;28;20477;-77
2023/03/16 14:15:37;;;;;;;0.00;0.00;;;;;;;14.43;69.42;99168.06;5000800;28;20053;-77
2023/03/16 14:18:23;;;;;;;0.00;0.00;;;;;;;14.55;67.24;99167.44;5012237;28;20025;-76
2023/03/16 14:20:56;;;;;;;0.00;0.00;;;;;;;14.24;67.46;99170.31;5024508;28;20522;-75
2023/03/16 14:23:38;;;;;;;0.00;0.00;;;;;;;14.08;68.03;99156.22;5014354;28;20017;-77
2023/03/16 14:26:11;;;;;;;0.00;0.00;;;;;;;14.17;69.14;99159.00;5008094;28;20047;-77
2023/03/16 14:28:37;;;;;;;0.00;0.00;;;;;;;14.56;68.60;99135.22;5004536;28;20116;-77
2023/03/16 14:31:18;;;;;;;0.00;0.00;;;;;;;14.87;66.75;99139.78;5023447;28;20064;-77
2023/03/16 14:33:44;;;;;;;0.00;0.00;;;;;;;15.15;66.47;99138.25;5037656;28;20025;-77
2023/03/16 14:36:18;;;;;;;0.00;0.00;;;;;;;15.13;65.13;99142.47;5008620;28;20540;-76
2023/03/16 14:38:47;;;;;;;0.00;0.00;;;;;;;14.86;65.61;99180.22;5022067;28;20032;-75
2023/03/16 14:41:31;;;;;;;0.00;0.00;;;;;;;14.25;66.79;99144.44;5021511;28;20037;-76
2023/03/16 14:44:06;;;;;;;0.00;0.00;;;;;;;14.08;68.34;99154.28;5010316;28;20030;-76
2023/03/16 14:46:39;;;;;;;0.00;0.00;;;;;;;13.97;68.09;99139.22;5019262;28;20122;-76
2023/03/16 14:49:20;;;;;;;0.00;0.00;;;;;;;14.12;68.87;99152.50;5028585;28;20025;-77
2023/03/16 14:51:55;;;;;;;0.00;0.00;;;;;;;14.05;68.25;99151.38;4993189;28;20330;-76
2023/03/16 14:54:38;;;;;;;0.00;0.00;;;;;;;13.83;69.29;99133.84;5004440;28;20045;-75
2023/03/16 14:57:04;;;;;;;0.00;0.00;;;;;;;13.51;70.56;99132.31;5029471;28;20946;-77
2023/03/16 14:59:35;;;;;;;0.00;0.00;;;;;;;13.03;71.30;99128.31;5023675;28;20030;-76
2023/03/16 15:02:08;;;;;;;0.00;0.00;;;;;;;12.68;73.00;99112.44;5007809;28;20789;-76
2023/03/16 15:04:36;;;;;;;0.00;0.00;;;;;;;12.63;73.13;99133.69;5013383;28;20041;-77
2023/03/16 15:07:20;;;;;;;0.00;0.00;;;;;;;12.52;74.46;99138.63;5028785;28;20468;-76
2023/03/16 15:09:51;;;;;;;0.00;0.00;;;;;;;12.38;74.99;99117.53;5027324;28;20120;-77
2023/03/16 15:12:49;;;;;;;0.00;0.00;;;;;;;12.27;75.74;99113.41;4987737;28;20038;-78
2023/03/16 15:15:21;;;;;;;0.00;0.00;;;;;;;12.28;75.42;99112.31;5010941;28;20083;-77
2023/03/16 15:18:09;;;;;;;0.00;0.00;;;;;;;12.48;75.02;99123.91;5011545;28;20116;-78
2023/03/16 15:20:41;;;;;;;0.00;0.00;;;;;;;12.29;74.71;99082.94;5005556;28;20029;-76
2023/03/16 15:23:26;;;;;;;0.00;0.00;;;;;;;12.21;75.26;99084.50;5010326;28;20025;-78
2023/03/16 15:26:09;;;;;;;;;;;;;;;;;;;;;
2023/03/16 15:29:02;;;;;;;;;;;;;;;;;;;;;
2023/03/16 15:31:28;;;;;;;0.00;0.00;;;;;;;11.88;76.95;99128.47;5023157;28;20034;-79
2023/03/16 15:33:56;;;;;;;0.00;0.00;;;;;;;11.77;77.70;99116.94;5010676;28;20036;-78
2023/03/16 15:36:23;;;;;;;0.00;0.00;;;;;;;11.70;78.16;99122.81;5020017;28;20022;-78
2023/03/16 15:39:03;;;;;;;;;;;;;;;;;;;;;
2023/03/16 15:41:28;;;;;;;0.00;0.00;;;;;;;11.68;78.59;99114.09;5024571;28;20476;-76
2023/03/16 15:43:59;;;;;;;0.00;0.00;;;;;;;11.62;78.71;99090.69;5009789;28;20121;-76
2023/03/16 15:46:52;;;;;;;0.00;0.00;;;;;;;11.72;78.66;99108.00;5007992;28;20056;-78
2023/03/16 15:49:30;;;;;;;0.00;0.00;;;;;;;11.74;78.65;99097.56;5012138;28;20073;-76
2023/03/16 15:52:15;;;;;;;0.00;0.00;;;;;;;11.78;78.11;99106.78;5019730;28;20021;-76
2023/03/16 15:55:03;;;;;;;0.00;0.00;;;;;;;11.68;78.70;99114.09;5006629;28;20064;-77
2023/03/16 15:57:30;;;;;;;0.00;0.00;;;;;;;11.56;79.37;99122.00;5025241;28;20165;-76
2023/03/16 15:59:58;;;;;;;0.00;0.00;;;;;;;11.43;79.21;99111.88;5009151;28;20100;-77
2023/03/16 16:03:06;;;;;;;0.00;0.00;;;;;;;11.31;80.67;99106.91;5031320;28;20056;-77
2023/03/16 16:05:35;;;;;;;0.00;0.00;;;;;;;11.37;81.19;99107.63;5016844;28;20123;-77
2023/03/16 16:08:03;;;;;;;0.00;0.00;;;;;;;11.16;81.12;99075.16;5019275;28;20081;-79
2023/03/16 16:10:33;;;;;;;0.00;0.00;;;;;;;11.34;81.24;99100.81;5023567;28;20532;-76
2023/03/16 16:13:38;;;;;;;0.00;0.00;;;;;;;11.24;81.37;99085.41;5014853;28;20048;-77
2023/03/16 16:19:13;;;;;;;0.00;0.00;;;;;;;11.46;81.11;99083.88;5015342;28;20037;-78
2023/03/16 16:21:59;;;;;;;0.00;0.00;;;;;;;11.47;80.90;99077.31;5017303;28;20463;-80
2023/03/16 16:28:13;;;;;;;0.00;0.00;;;;;;;11.39;81.27;99094.44;4959144;28;20485;-78
2023/03/16 16:34:23;;;;;;;;;;;;;;;;;;;;;
2023/03/16 16:36:55;;;;;;;0.00;0.00;;;;;;;11.16;82.51;99064.22;4948197;28;20175;-77
2023/03/16 16:39:26;;;;;;;0.00;0.00;;;;;;;11.25;82.42;99073.34;4969274;28;20038;-79
2023/03/16 16:42:40;;;;;;;0.00;0.00;;;;;;;11.30;82.30;99091.59;4954102;28;20125;-80
2023/03/16 16:49:18;;;;;;;0.00;0.00;;;;;;;11.04;83.22;99067.47;5016010;28;20034;-81
2023/03/16 16:52:02;;;;;;;0.00;0.00;;;;;;;11.00;83.36;99078.19;4914020;29;20502;-82
2023/03/16 16:54:34;;;;;;;0.00;0.00;;;;;;;11.06;83.70;99092.56;5006339;28;20053;-79
2023/03/16 16:57:32;;;;;;;;;;;;;;;;;;;;;
2023/03/16 17:00:44;;;;;;;0.00;0.00;;;;;;;10.98;84.27;99079.59;5018479;28;20021;-81
2023/03/16 17:03:39;;;;;;;;;;;;;;;;;;;;;
2023/03/16 17:06:26;;;;;;;;;;;;;;;10.83;84.86;99077.94;5026115;28;20038;-79
2023/03/16 17:09:15;;;;;;;0.00;0.00;;;;;;;10.77;85.43;99073.69;5035007;28;20587;-79
2023/03/16 17:15:57;;;;;;;0.00;0.00;;;;;;;10.53;86.05;99039.09;5031817;28;20035;-79
2023/03/16 17:22:08;;;;;;;;;;;;;;;;;;;;;
2023/03/16 17:25:18;;;;;;;0.00;0.00;;;;;;;10.60;86.44;99053.19;4952318;29;20030;-79
2023/03/16 17:32:02;;;;;;;;;;;;;;;;;;;;;
2023/03/16 17:49:29;;;;;;;;;;;;;;;;;;;;;
2023/03/16 18:12:15;;;;;;;0.00;0.00;;;;;;;10.54;89.44;99059.88;4868857;29;20044;-77
2023/03/16 18:14:43;;;;;;;0.00;0.00;;;;;;;10.41;88.97;99046.94;4916130;29;20035;-79
2023/03/16 18:17:49;;;;;;;0.00;0.00;;;;;;;10.33;89.66;99044.88;4948614;28;20051;-78
2023/03/16 18:20:58;;;;;;;0.00;0.00;;;;;;;10.36;89.89;99055.25;5010309;28;20029;-77
2023/03/16 18:23:33;;;;;;;0.00;0.00;;;;;;;10.38;90.22;99066.69;5004311;28;20438;-78
2023/03/16 18:26:02;;;;;;;0.00;0.00;;;;;;;10.35;90.93;99075.47;5021782;28;20046;-78
2023/03/16 18:28:29;;;;;;;0.00;0.00;;;;;;;10.29;90.99;99059.13;5001794;28;20033;-77
2023/03/16 18:30:56;;;;;;;0.00;0.00;;;;;;;10.21;90.68;99046.16;5017901;28;20021;-77
2023/03/16 18:33:29;;;;;;;0.00;0.00;;;;;;;10.33;90.86;99070.28;5029307;28;20060;-77
2023/03/16 18:35:59;;;;;;;0.00;0.00;;;;;;;10.20;90.89;99047.25;5023360;28;20040;-78
2023/03/16 18:38:42;;;;;;;0.00;0.00;;;;;;;10.20;91.71;99060.91;5019371;28;20123;-75
2023/03/16 18:41:26;;;;;;;0.00;0.00;;;;;;;10.21;91.45;99068.00;5027828;28;20036;-78
2023/03/16 18:44:03;;;;;;;0.00;0.00;;;;;;;9.98;92.31;99045.13;5019780;28;20030;-78
2023/03/16 18:46:46;;;;;;;;;;;;;;;;;;;;;
2023/03/16 18:50:22;;;;;;;0.00;0.00;;;;;;;9.61;96.18;99061.19;5026767;28;20043;-76
2023/03/16 18:52:51;;;;;;;0.00;0.00;;;;;;;9.44;99.96;99060.88;5019665;28;20399;-76
2023/03/16 18:55:23;;;;;;;0.00;0.00;;;;;;;9.16;100.00;99043.47;5024365;28;20431;-76
2023/03/16 18:57:55;;;;;;;0.00;0.00;;;;;;;9.19;100.00;99054.59;5026796;28;20029;-76
2023/03/16 19:00:33;;;;;;;0.00;0.00;;;;;;;9.09;100.00;99049.25;5027400;28;20105;-75
2023/03/16 19:03:48;;;;;;;;;;;;;;;;;;;;;
2023/03/16 19:06:28;;;;;;;0.00;0.00;;;;;;;9.16;100.00;99074.28;5017270;28;20044;-75
2023/03/16 19:08:55;;;;;;;0.00;0.00;;;;;;;9.10;100.00;99067.25;5003553;28;20233;-75
2023/03/16 19:12:03;;;;;;;;;;;;;;;;;;;;;
2023/03/16 19:14:48;;;;;;;;;;;;;;;;;;;;;
2023/03/16 19:20:22;;;;;;;0.00;0.00;;;;;;;8.97;100.00;99051.59;4966504;28;20046;-77
2023/03/16 19:22:50;;;;;;;0.00;0.00;;;;;;;8.85;100.00;99028.25;5000767;28;20048;-76
2023/03/16 19:26:23;;;;;;;0.10;0.10;;;;;;;8.85;100.00;99024.72;5020770;28;20105;-76
2023/03/16 19:29:03;;;;;;;0.00;0.00;;;;;;;8.99;100.00;99049.38;5013900;28;20040;-78
2023/03/16 19:32:37;;;;;;;0.00;0.00;;;;;;;9.00;100.00;99046.34;5010210;28;20044;-78
2023/03/16 19:35:22;;;;;;;0.00;0.00;;;;;;;8.89;100.00;99017.56;4911542;29;20107;-81
2023/03/16 19:37:48;;;;;;;0.00;0.00;;;;;;;8.99;100.00;99027.56;4902894;29;20180;-79
2023/03/16 19:40:37;;;;;;;0.00;0.00;;;;;;;8.90;100.00;99005.56;4898606;29;20111;-79
2023/03/16 19:43:02;;;;;;;0.00;0.00;;;;;;;8.98;100.00;99034.09;4915888;29;20652;-77
2023/03/16 19:45:33;;;;;;;0.00;0.00;;;;;;;9.00;100.00;99034.66;4963514;28;20138;-79
2023/03/16 19:48:13;;;;;;;0.00;0.00;;;;;;;8.95;100.00;99026.50;5034508;28;20383;-76
2023/03/16 19:50:41;;;;;;;0.00;0.00;;;;;;;9.15;100.00;99059.00;5018383;28;20037;-78
2023/03/16 19:53:17;;;;;;;0.00;0.00;;;;;;;9.06;100.00;99038.94;5013651;28;20037;-78
2023/03/16 19:56:00;;;;;;;0.00;0.00;;;;;;;9.13;100.00;99044.84;5014550;28;20078;-78
2023/03/16 19:58:30;;;;;;;0.00;0.00;;;;;;;9.14;100.00;99049.22;4995245;28;20164;-79
2023/03/16 20:01:17;;;;;;;0.00;0.00;;;;;;;9.15;100.00;99052.75;5020322;28;20143;-79
2023/03/16 20:03:46;;;;;;;0.00;0.00;;;;;;;9.06;100.00;99039.75;5008379;28;20054;-78
2023/03/16 20:06:24;;;;;;;0.00;0.00;;;;;;;9.14;100.00;99041.03;5006434;28;20040;-78
2023/03/16 20:08:50;;;;;;;0.00;0.00;;;;;;;9.09;100.00;99027.44;5009006;28;20034;-79
2023/03/16 20:11:29;;;;;;;0.00;0.00;;;;;;;9.21;100.00;99046.97;5008980;28;20035;-78
2023/03/16 20:13:58;;;;;;;0.00;0.00;;;;;;;9.21;100.00;99052.41;5035029;28;20027;-77
2023/03/16 20:16:43;;;;;;;0.00;0.00;;;;;;;9.16;100.00;99052.47;5014316;28;20033;-79
2023/03/16 20:19:40;;;;;;;;;;;;;;;9.21;100.00;99057.88;5028049;28;20037;-80
2023/03/16 20:22:59;;;;;;;;;;;;;;;;;;;;;
2023/03/16 20:25:33;;;;;;;0.00;0.00;;;;;;;9.14;100.00;99021.94;5034869;28;20049;-77
2023/03/16 20:28:06;;;;;;;0.00;0.00;;;;;;;9.23;100.00;99036.56;5020791;28;20056;-77
2023/03/16 20:30:34;;;;;;;0.00;0.00;;;;;;;9.12;100.00;99021.41;5019845;28;20525;-79
2023/03/16 20:33:00;;;;;;;0.00;0.00;;;;;;;9.19;100.00;99027.31;5036031;28;21588;-78
2023/03/16 20:35:32;;;;;;;0.00;0.00;;;;;;;9.30;100.00;99040.84;5012194;28;20053;-75
2023/03/16 20:38:28;;;;;;;0.00;0.00;;;;;;;9.26;100.00;99033.25;5019263;28;20519;-75
2023/03/16 20:40:57;;;;;;;0.00;0.00;;;;;;;9.25;100.00;99028.88;4986348;28;20125;-77
2023/03/16 20:43:28;;;;;;;0.00;0.00;;;;;;;9.23;100.00;99033.84;5012500;28;21276;-76
2023/03/16 20:47:15;;;;;;;;;;;;;;;;;;;;;
2023/03/16 20:53:51;;;;;;;;;;;;;;;;;;;;;
2023/03/16 20:56:38;;;;;;;0.00;0.00;;;;;;;9.38;100.00;99029.28;4964632;28;20039;-76
2023/03/16 20:59:04;;;;;;;0.00;0.00;;;;;;;9.43;100.00;99037.41;4951333;28;20042;-77
2023/03/16 21:01:32;;;;;;;0.00;0.00;;;;;;;9.31;100.00;99015.19;4952746;28;20185;-78
2023/03/16 21:04:06;;;;;;;0.00;0.00;;;;;;;9.43;100.00;99040.13;4954004;28;20043;-79
2023/03/16 21:06:38;;;;;;;0.00;0.00;;;;;;;9.40;100.00;99036.09;4952578;28;20039;-77
2023/03/16 21:09:17;;;;;;;0.00;0.00;;;;;;;9.32;100.00;99019.56;4957878;28;20034;-78
2023/03/16 21:12:30;;;;;;;;;;;;;;;;;;;;;
2023/03/16 21:23:04;;;;;;;0.00;0.00;;;;;;;9.36;100.00;99026.88;4821710;29;20120;-75
2023/03/16 21:26:25;;;;;;;;;;;;;;;;;;;;;
2023/03/16 21:48:03;;;;;;;;;;;;;;;;;;;;;
2023/03/16 21:51:42;;;;;;;;;;;;;;;;;;;;;
2023/03/16 22:00:54;;;;;;;0.00;0.00;;;;;;;9.87;100.00;99057.28;5007391;28;20107;-76
2023/03/16 22:06:32;;;;;;;0.00;0.00;;;;;;;9.68;100.00;99038.16;4967582;28;20475;-75
2023/03/16 22:20:30;;;;;;;;;;;;;;;;;;;;;
2023/03/16 22:26:59;;;;;;;;;;;;;;;;;;;;;
2023/03/16 22:56:59;;;;;;;0.00;0.00;;;;;;;10.00;100.00;99080.34;4784467;29;20099;-77
2023/03/16 23:00:20;;;;;;;;;;;;;;;;;;;;;
2023/03/16 23:03:44;;;;;;;0.00;0.00;;;;;;;10.03;100.00;99077.00;4798509;29;20054;-75
2023/03/16 23:06:35;;;;;;;0.00;0.00;;;;;;;9.88;100.00;99046.06;4857762;28;20049;-74
2023/03/16 23:09:01;;;;;;;0.00;0.00;;;;;;;9.92;100.00;99055.31;5004693;28;20034;-74
2023/03/16 23:11:30;;;;;;;0.00;0.00;;;;;;;9.93;100.00;99062.41;4987334;28;20033;-78
2023/03/16 23:13:56;;;;;;;0.00;0.00;;;;;;;10.07;100.00;99086.25;4989977;28;20116;-77
2023/03/16 23:16:35;;;;;;;0.00;0.00;;;;;;;10.03;100.00;99083.28;4981906;28;20046;-78
2023/03/16 23:19:29;;;;;;;;;;;;;;;;;;;;;
2023/03/16 23:21:59;;;;;;;0.00;0.00;;;;;;;9.86;100.00;99061.94;5012404;28;20109;-76
2023/03/16 23:24:36;;;;;;;0.00;0.00;;;;;;;9.81;100.00;99063.94;5004686;28;20022;-77
2023/03/16 23:27:06;;;;;;;0.00;0.00;;;;;;;9.99;100.00;99089.63;4985392;28;20082;-77
2023/03/16 23:29:43;;;;;;;0.00;0.00;;;;;;;9.90;100.00;99068.44;4998826;28;20042;-75
2023/03/16 23:32:11;;;;;;;0.00;0.00;;;;;;;10.00;100.00;99088.53;4984792;28;20040;-77
2023/03/16 23:34:36;;;;;;;0.00;0.00;;;;;;;9.93;100.00;99072.53;4987116;28;20034;-76
2023/03/16 23:37:01;;;;;;;0.00;0.00;;;;;;;10.05;100.00;99091.19;4967921;28;20057;-76
2023/03/16 23:39:27;;;;;;;0.00;0.00;;;;;;;10.02;100.00;99078.13;4985508;28;20369;-76
2023/03/16 23:41:53;;;;;;;0.00;0.00;;;;;;;10.11;100.00;99095.47;4999896;28;20039;-77
2023/03/16 23:44:27;;;;;;;0.00;0.00;;;;;;;10.05;100.00;99085.72;4966313;28;20487;-76
2023/03/16 23:46:53;;;;;;;0.00;0.00;;;;;;;10.22;100.00;99116.06;4979607;28;20038;-77
2023/03/16 23:49:25;;;;;;;0.00;0.00;;;;;;;10.22;100.00;99102.41;4990399;28;20395;-77
2023/03/16 23:51:51;;;;;;;0.00;0.00;;;;;;;10.16;100.00;99089.13;4974936;28;20026;-77
2023/03/16 23:54:22;;;;;;;0.00;0.00;;;;;;;10.10;100.00;99081.00;4968208;28;20019;-75
2023/03/16 23:56:49;;;;;;;0.00;0.00;;;;;;;10.24;100.00;99105.66;5000709;28;20041;-77
2023/03/16 23:59:15;;;;;;;0.00;0.00;;;;;;;10.27;100.00;99105.06;4984696;28;20049;-77
